Time;durP1;ratioP1;P1;durP2;ratioP2;P2;SDS_P1;SDS_P2;PMS_P1;PMS_P2;Temp;Humidity;BMP_temperature;BMP_pressure;BME280_temperature;BME280_humidity;BME280_pressure;Samples;Min_cycle;Max_cycle;Signal;HPM_P1;HPM_P2
2022/11/27 00:00:16;;;;;;;13.32;5.93;;;;;;;11.75;66.41;99225.78;4406808;32;20160;-83
2022/11/27 00:02:43;;;;;;;13.65;5.97;;;;;;;12.02;64.27;99226.78;4395551;32;20406;-83
2022/11/27 00:05:10;;;;;;;14.45;5.97;;;;;;;11.20;68.28;99214.41;4395467;32;20441;-83
2022/11/27 00:07:37;;;;;;;15.90;6.65;;;;;;;10.81;70.16;99213.69;4395589;32;20434;-83
2022/11/27 00:10:05;;;;;;;14.85;5.95;;;;;;;11.13;67.82;99213.72;4395345;32;20374;-83
2022/11/27 00:12:32;;;;;;;12.90;5.82;;;;;;;10.72;70.38;99217.34;4395306;32;20086;-83
2022/11/27 00:14:59;;;;;;;15.52;5.97;;;;;;;10.71;69.31;99210.47;4395599;32;20157;-83
2022/11/27 00:17:26;;;;;;;14.43;6.03;;;;;;;10.93;69.06;99211.62;4395537;32;20086;-83
2022/11/27 00:19:53;;;;;;;16.73;7.30;;;;;;;10.59;70.76;99219.38;4394141;32;20507;-82
2022/11/27 00:22:20;;;;;;;13.50;6.03;;;;;;;10.04;72.62;99215.47;4394712;32;20075;-82
2022/11/27 00:24:46;;;;;;;16.58;6.62;;;;;;;10.49;71.61;99217.91;4393837;32;20130;-83
2022/11/27 00:27:13;;;;;;;12.95;5.80;;;;;;;10.49;71.30;99214.47;4406794;32;20110;-83
2022/11/27 00:29:40;;;;;;;13.77;6.20;;;;;;;10.05;73.37;99218.88;4395091;32;20083;-83
2022/11/27 00:32:07;;;;;;;15.27;5.95;;;;;;;9.74;73.88;99208.37;4395438;32;20522;-83
2022/11/27 00:34:34;;;;;;;14.77;6.32;;;;;;;9.18;76.92;99220.66;4395256;32;20141;-83
2022/11/27 00:37:01;;;;;;;15.50;5.82;;;;;;;9.35;77.00;99217.75;4395356;32;20381;-83
2022/11/27 00:39:28;;;;;;;16.90;6.15;;;;;;;9.65;74.50;99224.88;4395184;32;20087;-83
2022/11/27 00:41:55;;;;;;;14.75;5.82;;;;;;;9.41;75.33;99235.69;4395443;32;20437;-83
2022/11/27 00:44:22;;;;;;;17.48;6.20;;;;;;;9.70;74.41;99232.53;4395205;32;20116;-83
2022/11/27 00:46:49;;;;;;;15.55;6.03;;;;;;;9.48;75.79;99224.37;4395226;32;20094;-83
2022/11/27 00:49:16;;;;;;;14.80;5.62;;;;;;;10.08;72.80;99223.97;4395203;32;20101;-83
2022/11/27 00:51:43;;;;;;;17.37;6.87;;;;;;;10.37;72.04;99228.50;4395163;32;20074;-83
2022/11/27 00:54:10;;;;;;;12.35;5.22;;;;;;;10.76;68.81;99234.47;4395093;32;20109;-83
2022/11/27 00:56:38;;;;;;;13.13;6.10;;;;;;;10.43;69.34;99238.72;4395303;32;20550;-83
2022/11/27 00:59:06;;;;;;;14.98;6.12;;;;;;;9.46;74.57;99245.03;4395171;32;20078;-83
2022/11/27 01:01:36;;;;;;;14.85;5.62;;;;;;;9.79;73.00;99240.94;4395234;32;20079;-83
2022/11/27 01:04:05;;;;;;;16.15;5.60;;;;;;;10.17;71.24;99240.97;4395168;32;20362;-83
2022/11/27 01:06:32;;;;;;;14.63;5.97;;;;;;;8.61;78.83;99242.22;4395265;32;20152;-83
2022/11/27 01:08:59;;;;;;;16.98;5.15;;;;;;;9.18;76.16;99242.09;4395060;32;20163;-83
2022/11/27 01:11:29;;;;;;;12.02;4.78;;;;;;;9.69;73.96;99238.56;4394996;32;20078;-82
2022/11/27 01:13:58;;;;;;;16.65;5.18;;;;;;;9.40;74.82;99237.41;4395143;32;20098;-83
2022/11/27 01:16:28;;;;;;;11.98;5.07;;;;;;;9.42;75.01;99238.22;4395046;32;20090;-83
2022/11/27 01:18:59;;;;;;;12.95;5.90;;;;;;;9.05;76.88;99237.22;4393892;32;20086;-82
2022/11/27 01:21:29;;;;;;;13.90;6.07;;;;;;;9.04;75.11;99236.38;4394011;32;20136;-83
2022/11/27 01:23:56;;;;;;;15.23;6.07;;;;;;;9.41;73.90;99236.53;4395017;32;20536;-83
2022/11/27 01:26:23;;;;;;;12.75;5.45;;;;;;;9.29;74.88;99226.44;4395054;32;20090;-83
2022/11/27 01:28:55;;;;;;;18.02;5.53;;;;;;;8.78;77.62;99225.66;4394662;32;20086;-83
2022/11/27 01:31:28;;;;;;;14.32;6.75;;;;;;;8.59;79.77;99225.09;4394877;32;20082;-83
2022/11/27 01:33:57;;;;;;;15.20;6.10;;;;;;;8.93;78.14;99220.22;4394534;32;20461;-83
2022/11/27 01:36:25;;;;;;;14.40;5.82;;;;;;;9.68;73.33;99213.69;4394858;32;20109;-83
2022/11/27 01:38:52;;;;;;;15.95;6.15;;;;;;;9.32;74.73;99216.09;4394939;32;20483;-83
2022/11/27 01:41:31;;;;;;;15.40;5.15;;;;;;;9.49;72.92;99215.78;4393888;32;20103;-83
2022/11/27 01:44:01;;;;;;;16.62;6.03;;;;;;;9.72;72.93;99217.88;4394784;32;20405;-83
2022/11/27 01:46:43;;;;;;;15.13;5.50;;;;;;;9.61;72.60;99223.25;4395100;32;20378;-83
2022/11/27 01:49:10;;;;;;;15.15;5.60;;;;;;;10.01;69.93;99223.28;4394741;32;20120;-83
2022/11/27 01:51:39;;;;;;;;;;;;;;;10.81;65.97;99227.44;4395131;32;20070;-83
2022/11/27 01:54:08;;;;;;;13.38;5.30;;;;;;;10.94;65.40;99220.22;4394898;32;19970;-83
2022/11/27 01:56:35;;;;;;;16.20;6.15;;;;;;;10.97;64.89;99227.91;4393652;32;20136;-83
2022/11/27 01:59:03;;;;;;;14.23;5.55;;;;;;;11.46;62.59;99224.00;4394752;32;20102;-83
2022/11/27 02:01:29;;;;;;;15.57;5.62;;;;;;;11.05;64.43;99225.97;4395000;32;20101;-83
2022/11/27 02:03:58;;;;;;;14.30;5.60;;;;;;;11.28;63.31;99223.66;4393528;32;20130;-83
2022/11/27 02:06:26;;;;;;;13.65;4.87;;;;;;;11.09;62.86;99230.19;4394756;32;20132;-83
2022/11/27 02:08:53;;;;;;;12.75;5.22;;;;;;;10.62;64.53;99221.88;4394660;32;20425;-83
2022/11/27 02:11:38;;;;;;;13.40;5.50;;;;;;;11.22;62.93;99217.78;4394750;32;20071;-83
2022/11/27 02:14:37;;;;;;;13.15;5.53;;;;;;;10.96;62.00;99221.06;4394606;32;20233;-83
2022/11/27 02:17:29;;;;;;;14.27;5.22;;;;;;;11.61;59.79;99213.28;4369365;32;20116;-84
2022/11/27 02:20:11;;;;;;;13.38;5.72;;;;;;;10.95;61.63;99217.63;4393389;32;20459;-84
2022/11/27 02:22:44;;;;;;;15.30;5.43;;;;;;;11.23;60.69;99216.91;4394586;32;20338;-83
2022/11/27 02:25:32;;;;;;;16.83;6.50;;;;;;;11.29;60.72;99214.16;4393438;32;20117;-83
2022/11/27 02:27:59;;;;;;;15.90;5.30;;;;;;;11.27;60.59;99227.12;4393554;32;20460;-83
2022/11/27 02:30:27;;;;;;;14.65;5.22;;;;;;;11.15;62.48;99218.81;4394165;32;20467;-83
2022/11/27 02:32:59;;;;;;;12.07;5.03;;;;;;;11.08;62.59;99225.06;4393083;32;20082;-83
2022/11/27 02:35:31;;;;;;;13.85;5.20;;;;;;;11.96;59.35;99226.94;4393443;32;20157;-83
2022/11/27 02:38:22;;;;;;;15.18;5.53;;;;;;;11.54;58.81;99228.09;4394631;32;20098;-83
2022/11/27 02:40:58;;;;;;;14.93;5.53;;;;;;;11.81;57.90;99225.66;4394160;32;20094;-83
2022/11/27 02:43:38;;;;;;;14.73;5.62;;;;;;;12.02;56.93;99216.44;4394345;32;20077;-83
2022/11/27 02:46:07;;;;;;;15.68;5.10;;;;;;;11.46;59.50;99217.09;4394713;32;20099;-83
2022/11/27 02:48:47;;;;;;;15.00;5.07;;;;;;;11.85;58.65;99225.50;4394986;32;20141;-83
2022/11/27 02:51:17;;;;;;;15.25;4.90;;;;;;;11.23;60.35;99225.50;4394914;32;20095;-83
2022/11/27 02:54:04;;;;;;;15.77;5.80;;;;;;;10.72;62.61;99225.09;4394785;32;20079;-83
2022/11/27 02:56:33;;;;;;;17.12;5.40;;;;;;;10.93;61.73;99223.69;4396199;32;20442;-83
2022/11/27 02:59:06;;;;;;;12.95;4.87;;;;;;;10.56;63.93;99221.19;4396073;32;20434;-83
2022/11/27 03:01:41;;;;;;;13.15;4.85;;;;;;;10.42;63.40;99224.13;4394779;32;20094;-83
2022/11/27 03:04:15;;;;;;;14.45;5.03;;;;;;;9.84;65.96;99231.34;4396084;32;20358;-83
2022/11/27 03:06:49;;;;;;;13.25;5.28;;;;;;;9.97;66.04;99231.94;4395975;32;20152;-83
2022/11/27 03:09:19;;;;;;;14.18;5.45;;;;;;;11.01;62.13;99232.94;4396093;32;20110;-83
2022/11/27 03:11:46;;;;;;;18.40;5.85;;;;;;;11.58;59.26;99234.00;4395970;32;20083;-83
2022/11/27 03:14:13;;;;;;;14.60;5.70;;;;;;;10.18;63.74;99224.63;4395705;32;20426;-83
2022/11/27 03:17:02;;;;;;;14.73;5.68;;;;;;;11.21;60.46;99234.19;4394895;32;20098;-83
2022/11/27 03:19:50;;;;;;;16.20;5.82;;;;;;;10.65;62.88;99233.88;4395847;32;20106;-83
2022/11/27 03:22:17;;;;;;;14.63;5.62;;;;;;;10.28;63.87;99229.56;4394708;32;20095;-83
2022/11/27 03:24:44;;;;;;;14.10;5.80;;;;;;;10.42;63.67;99230.13;4395822;32;20082;-83
2022/11/27 03:27:14;;;;;;;14.38;5.90;;;;;;;10.96;61.77;99231.41;4394714;32;20103;-83
2022/11/27 03:29:47;;;;;;;16.80;6.12;;;;;;;11.58;59.63;99236.59;4394257;32;20164;-83
2022/11/27 03:32:15;;;;;;;13.60;5.82;;;;;;;11.59;58.76;99234.00;4395756;32;20594;-83
2022/11/27 03:34:42;;;;;;;13.50;5.80;;;;;;;11.14;61.14;99223.16;4395665;32;20460;-83
2022/11/27 03:37:09;;;;;;;14.52;6.10;;;;;;;11.30;60.81;99231.34;4395831;32;20113;-83
2022/11/27 03:39:36;;;;;;;14.85;6.43;;;;;;;11.19;61.24;99230.78;4395652;32;20149;-82
2022/11/27 03:42:12;;;;;;;17.83;6.35;;;;;;;10.87;63.03;99222.13;4394620;32;20105;-82
2022/11/27 03:44:42;;;;;;;18.27;6.07;;;;;;;10.52;64.17;99225.56;4395611;32;20148;-83
2022/11/27 03:47:21;;;;;;;14.87;6.15;;;;;;;10.37;65.82;99221.63;4395754;32;20113;-82
2022/11/27 03:50:10;;;;;;;18.65;6.65;;;;;;;10.43;65.03;99223.22;4395538;32;20422;-82
2022/11/27 03:52:40;;;;;;;15.73;7.15;;;;;;;9.95;66.78;99220.81;4395559;32;20165;-82
2022/11/27 03:55:12;;;;;;;15.93;6.30;;;;;;;9.99;67.30;99212.12;4395634;32;20079;-83
2022/11/27 03:58:03;;;;;;;15.52;5.93;;;;;;;10.40;63.79;99215.53;4395417;32;20504;-83
2022/11/27 04:00:35;;;;;;;16.87;6.37;;;;;;;10.36;64.74;99211.34;4395510;32;20098;-83
2022/11/27 04:03:03;;;;;;;14.75;6.05;;;;;;;10.10;65.22;99215.34;4395522;32;20087;-83
2022/11/27 04:05:30;;;;;;;14.68;5.95;;;;;;;10.96;63.45;99219.31;4394495;32;20393;-83
2022/11/27 04:07:57;;;;;;;14.95;5.75;;;;;;;11.05;61.96;99213.06;4394509;32;20165;-83
2022/11/27 04:10:24;;;;;;;16.08;6.78;;;;;;;11.06;61.86;99219.06;4395325;32;20145;-83
2022/11/27 04:12:51;;;;;;;15.20;6.30;;;;;;;10.77;63.40;99217.25;4395416;32;20559;-82
2022/11/27 04:15:18;;;;;;;15.52;6.00;;;;;;;10.82;62.56;99216.22;4395585;32;20091;-83
2022/11/27 04:17:44;;;;;;;15.70;6.57;;;;;;;10.03;64.62;99215.50;4395452;32;20089;-82
2022/11/27 04:20:15;;;;;;;15.48;6.95;;;;;;;10.98;62.43;99216.69;4394267;32;20177;-83
2022/11/27 04:22:42;;;;;;;14.07;6.28;;;;;;;10.66;62.68;99217.50;4395439;32;20167;-83
2022/11/27 04:25:08;;;;;;;17.23;6.62;;;;;;;10.53;62.64;99213.53;4395422;32;20091;-83
2022/11/27 04:27:35;;;;;;;18.10;6.35;;;;;;;11.25;59.81;99212.53;4395568;32;20156;-83
2022/11/27 04:30:03;;;;;;;14.02;6.00;;;;;;;11.02;60.28;99218.31;4395099;32;20122;-83
2022/11/27 04:32:30;;;;;;;15.23;6.53;;;;;;;11.22;59.28;99215.19;4395237;32;20083;-83
2022/11/27 04:34:57;;;;;;;16.25;7.07;;;;;;;10.42;62.55;99212.06;4395377;32;20075;-83
2022/11/27 04:37:24;;;;;;;14.55;6.93;;;;;;;11.06;60.19;99207.03;4395424;32;20145;-83
2022/11/27 04:39:51;;;;;;;15.13;6.95;;;;;;;11.80;57.71;99208.44;4395089;32;20118;-83
2022/11/27 04:42:18;;;;;;;16.05;6.80;;;;;;;11.49;58.87;99206.72;4394249;32;20094;-83
2022/11/27 04:44:44;;;;;;;;;;;;;;;11.52;59.23;99200.59;4395505;32;20078;-84
2022/11/27 04:47:11;;;;;;;16.73;6.75;;;;;;;10.95;61.58;99194.41;4395474;32;19970;-82
2022/11/27 04:49:38;;;;;;;;;;;;;;;11.48;59.80;99192.09;4395484;32;20086;-82
2022/11/27 04:52:05;;;;;;;15.18;6.53;;;;;;;10.79;62.37;99190.50;4395369;32;20073;-82
2022/11/27 04:54:32;;;;;;;16.65;6.87;;;;;;;10.16;63.95;99183.38;4395204;32;20354;-83
2022/11/27 04:56:59;;;;;;;18.95;7.22;;;;;;;10.75;63.03;99185.47;4395259;32;20094;-82
2022/11/27 04:59:26;;;;;;;17.52;7.25;;;;;;;9.91;65.48;99182.25;4395151;32;20103;-83
2022/11/27 05:01:53;;;;;;;15.82;7.35;;;;;;;10.39;64.53;99188.03;4395288;32;20100;-83
2022/11/27 05:04:20;;;;;;;16.65;7.32;;;;;;;10.51;63.29;99186.91;4395154;32;20543;-83
2022/11/27 05:06:47;;;;;;;17.08;7.37;;;;;;;10.92;61.40;99185.84;4393911;32;20751;-83
2022/11/27 05:09:17;;;;;;;17.40;7.60;;;;;;;10.71;61.24;99184.66;4394358;32;20099;-83
2022/11/27 05:11:44;;;;;;;18.95;7.70;;;;;;;11.12;59.35;99178.44;4393924;32;20140;-82
2022/11/27 05:14:13;;;;;;;15.73;6.87;;;;;;;11.71;57.06;99175.91;4394982;32;20144;-83
2022/11/27 05:16:41;;;;;;;18.23;7.68;;;;;;;10.63;60.78;99171.97;4395154;32;20102;-83
2022/11/27 05:19:09;;;;;;;17.33;7.30;;;;;;;10.50;61.08;99172.31;4395114;32;20153;-83
2022/11/27 05:21:37;;;;;;;20.65;8.02;;;;;;;11.55;58.00;99174.66;4395051;32;20445;-83
2022/11/27 05:24:04;;;;;;;15.85;6.90;;;;;;;11.09;57.85;99177.69;4394872;32;20101;-83
2022/11/27 05:26:31;;;;;;;14.65;7.00;;;;;;;10.67;59.52;99178.75;4395089;32;20103;-83
2022/11/27 05:28:59;;;;;;;18.48;7.53;;;;;;;10.48;59.15;99180.09;4394718;32;20160;-83
2022/11/27 05:31:26;;;;;;;17.92;7.65;;;;;;;10.58;59.42;99173.81;4395070;32;20086;-83
2022/11/27 05:33:53;;;;;;;15.90;7.57;;;;;;;10.55;59.54;99176.47;4394737;32;20078;-84
2022/11/27 05:36:20;;;;;;;16.60;7.55;;;;;;;10.71;59.00;99176.94;4393778;32;20421;-83
2022/11/27 05:38:47;;;;;;;12.65;6.40;;;;;;;11.64;55.92;99173.56;4394939;32;20153;-82
2022/11/27 05:41:14;;;;;;;15.77;6.78;;;;;;;11.15;57.02;99178.34;4393644;32;20401;-83
2022/11/27 05:43:41;;;;;;;18.85;7.12;;;;;;;10.26;59.89;99174.59;4393691;32;20091;-83
2022/11/27 05:46:10;;;;;;;17.75;7.43;;;;;;;11.19;57.54;99173.97;4394945;32;20202;-82
2022/11/27 05:48:37;;;;;;;17.70;7.93;;;;;;;11.39;56.20;99168.25;4393538;32;20094;-83
2022/11/27 05:51:04;;;;;;;16.52;6.95;;;;;;;11.37;57.25;99173.44;4393717;32;20105;-83
2022/11/27 05:53:32;;;;;;;17.30;7.35;;;;;;;11.32;56.44;99179.63;4394655;32;20074;-83
2022/11/27 05:56:13;;;;;;;16.48;6.72;;;;;;;10.89;57.67;99179.03;4394620;32;20109;-83
2022/11/27 05:58:42;;;;;;;16.00;7.03;;;;;;;10.90;57.48;99174.72;4393851;32;20591;-83
2022/11/27 06:01:10;;;;;;;17.73;7.05;;;;;;;10.95;57.38;99178.91;4394711;32;20456;-83
2022/11/27 06:03:40;;;;;;;18.83;7.47;;;;;;;11.04;57.13;99175.19;4394608;32;20233;-83
2022/11/27 06:06:09;;;;;;;15.82;7.28;;;;;;;10.41;59.07;99166.47;4395071;32;20094;-83
2022/11/27 06:08:36;;;;;;;14.93;6.70;;;;;;;10.48;60.14;99169.75;4394766;32;20168;-82
2022/11/27 06:11:15;;;;;;;18.30;7.10;;;;;;;8.74;67.98;99175.12;4394495;32;20178;-83
2022/11/27 06:13:42;;;;;;;14.45;6.60;;;;;;;8.79;69.34;99163.84;4394770;32;20503;-83
2022/11/27 06:16:20;;;;;;;16.20;6.75;;;;;;;9.21;68.43;99169.94;4394552;32;20464;-83
2022/11/27 06:18:52;;;;;;;14.55;6.78;;;;;;;10.36;63.09;99167.47;4394569;32;20094;-84
2022/11/27 06:21:20;;;;;;;15.50;6.72;;;;;;;10.77;60.45;99176.78;4394599;32;20086;-83
2022/11/27 06:23:46;;;;;;;17.02;7.00;;;;;;;10.55;60.08;99173.91;4393262;32;20101;-83
2022/11/27 06:26:19;;;;;;;17.77;6.15;;;;;;;10.35;60.00;99176.97;4394515;32;20355;-83
2022/11/27 06:28:47;;;;;;;14.48;6.80;;;;;;;10.59;59.20;99178.09;4394467;32;20094;-83
2022/11/27 06:31:16;;;;;;;15.80;7.15;;;;;;;9.95;60.50;99168.41;4394332;32;20086;-83
2022/11/27 06:33:45;;;;;;;14.52;6.70;;;;;;;10.19;61.35;99177.31;4393301;32;20432;-83
2022/11/27 06:36:12;;;;;;;15.25;6.93;;;;;;;9.72;64.07;99174.06;4393362;32;20103;-83
2022/11/27 06:38:39;;;;;;;17.27;6.70;;;;;;;8.96;66.65;99177.28;4394270;32;20106;-82
2022/11/27 06:41:08;;;;;;;16.87;6.60;;;;;;;9.31;67.13;99165.47;4394369;32;20594;-83
2022/11/27 06:43:35;;;;;;;14.38;6.10;;;;;;;10.05;64.02;99170.75;4394402;32;20475;-83
2022/11/27 06:46:04;;;;;;;16.42;6.28;;;;;;;11.18;58.09;99172.28;4394189;32;20149;-83
2022/11/27 06:48:32;;;;;;;17.40;6.53;;;;;;;11.15;57.69;99173.19;4394307;32;20095;-83
2022/11/27 06:51:03;;;;;;;14.45;6.40;;;;;;;11.17;57.08;99171.44;4394140;32;20082;-83
2022/11/27 06:53:33;;;;;;;16.20;6.60;;;;;;;11.35;55.77;99176.97;4393062;32;20109;-83
2022/11/27 06:56:08;;;;;;;14.80;6.65;;;;;;;11.10;63.65;99176.78;4394220;32;20171;-83
2022/11/27 06:58:35;;;;;;;15.25;7.03;;;;;;;12.02;61.39;99180.22;4393231;32;20164;-82
2022/11/27 07:01:05;;;;;;;15.43;6.47;;;;;;;13.17;57.14;99193.66;4394171;32;20499;-83
2022/11/27 07:03:32;;;;;;;13.90;6.45;;;;;;;13.90;51.83;99191.00;4394056;32;20074;-82
2022/11/27 07:06:00;;;;;;;17.50;6.35;;;;;;;14.05;49.69;99192.19;4393883;32;20616;-83
2022/11/27 07:08:27;;;;;;;15.90;8.13;;;;;;;14.16;49.12;99196.94;4394085;32;20095;-83
2022/11/27 07:11:00;;;;;;;21.30;10.88;;;;;;;14.56;47.80;99204.00;4393850;32;20097;-82
2022/11/27 07:13:29;;;;;;;22.42;11.40;;;;;;;14.20;48.43;99211.50;4393498;32;20366;-82
2022/11/27 07:16:00;;;;;;;33.20;15.13;;;;;;;15.44;45.79;99220.22;4393811;32;20099;-82
2022/11/27 07:18:28;;;;;;;37.40;18.20;;;;;;;15.74;45.35;99214.63;4393820;32;20444;-82
2022/11/27 07:20:55;;;;;;;34.83;17.05;;;;;;;16.61;43.51;99216.56;4393437;32;20543;-82
2022/11/27 07:23:22;;;;;;;30.12;14.55;;;;;;;17.52;41.96;99223.28;4393761;32;20087;-82
2022/11/27 07:25:49;;;;;;;24.63;12.93;;;;;;;18.08;40.21;99219.47;4393724;32;20468;-82
2022/11/27 07:28:16;;;;;;;19.83;10.38;;;;;;;18.61;39.19;99215.59;4388595;32;152125;-82
2022/11/27 07:30:45;;;;;;;22.95;11.52;;;;;;;19.12;38.14;99216.16;4393845;32;20150;-82
2022/11/27 07:33:12;;;;;;;26.70;13.20;;;;;;;19.58;37.14;99212.50;4394955;32;20109;-83
2022/11/27 07:35:38;;;;;;;23.35;13.30;;;;;;;20.18;35.88;99211.38;4396243;32;20099;-82
2022/11/27 07:38:05;;;;;;;28.67;17.55;;;;;;;20.19;35.96;99210.44;4396146;32;20090;-82
2022/11/27 07:40:32;;;;;;;29.23;16.80;;;;;;;20.59;35.12;99221.88;4395717;32;20098;-82
2022/11/27 07:42:59;;;;;;;32.50;19.73;;;;;;;21.11;34.59;99222.81;4396263;32;20450;-82
2022/11/27 07:45:26;;;;;;;70.57;41.55;;;;;;;21.11;33.99;99222.81;4407680;32;20110;-82
2022/11/27 07:47:53;;;;;;;52.83;31.87;;;;;;;20.98;34.07;99223.66;4396016;32;20098;-82
2022/11/27 07:50:20;;;;;;;43.50;24.80;;;;;;;21.62;33.73;99231.59;4396134;32;20085;-82
2022/11/27 07:52:47;;;;;;;36.13;20.23;;;;;;;21.73;32.73;99228.22;4396354;32;20090;-83
2022/11/27 07:55:14;;;;;;;26.10;14.65;;;;;;;21.49;33.07;99234.22;4395928;32;20544;-83
2022/11/27 07:57:41;;;;;;;21.40;12.48;;;;;;;21.53;33.24;99240.94;4396441;32;20426;-83
2022/11/27 08:00:09;;;;;;;16.08;9.48;;;;;;;21.70;32.83;99225.81;4396398;32;20382;-82
2022/11/27 08:02:36;;;;;;;16.27;9.75;;;;;;;21.92;32.98;99232.06;4407961;32;20083;-83
2022/11/27 08:05:03;;;;;;;17.05;9.32;;;;;;;22.32;31.59;99229.25;4397089;32;20113;-82
2022/11/27 08:07:36;;;;;;;18.70;9.82;;;;;;;21.62;32.41;99229.81;4397143;32;20114;-83
2022/11/27 08:10:04;;;;;;;17.58;10.05;;;;;;;22.22;31.42;99220.34;4396561;32;20094;-82
2022/11/27 08:12:31;;;;;;;26.87;15.90;;;;;;;22.25;31.10;99227.19;4396703;32;20070;-82
2022/11/27 08:14:57;;;;;;;27.58;15.82;;;;;;;20.90;34.04;99227.72;4396270;32;20103;-82
2022/11/27 08:17:24;;;;;;;22.27;11.23;;;;;;;20.18;35.06;99227.94;4395979;32;20102;-82
2022/11/27 08:19:51;;;;;;;15.93;8.43;;;;;;;20.00;35.34;99234.38;4396790;32;20108;-82
2022/11/27 08:22:19;;;;;;;15.65;8.30;;;;;;;20.43;34.73;99229.91;4397487;32;20130;-83
2022/11/27 08:24:47;;;;;;;15.60;6.45;;;;;;;18.97;37.11;99231.81;4398116;32;20098;-82
2022/11/27 08:27:15;;;;;;;14.00;6.37;;;;;;;20.38;34.71;99237.16;4398712;32;20059;-83
2022/11/27 08:29:42;;;;;;;13.73;5.97;;;;;;;20.93;33.99;99241.47;4397519;32;20081;-82
2022/11/27 08:32:09;;;;;;;11.68;5.32;;;;;;;21.09;33.86;99241.31;4398881;32;20093;-83
2022/11/27 08:34:36;;;;;;;11.77;5.12;;;;;;;19.83;35.83;99229.31;4398592;32;20099;-83
2022/11/27 08:37:05;;;;;;;11.32;4.32;;;;;;;17.35;41.05;99230.25;4409691;32;20109;-83
2022/11/27 08:39:32;;;;;;;10.82;4.68;;;;;;;15.37;45.08;99237.00;4397425;32;20098;-82
2022/11/27 08:41:59;;;;;;;13.18;5.30;;;;;;;14.75;47.23;99236.13;4397514;32;20097;-82
2022/11/27 08:44:26;;;;;;;10.65;4.53;;;;;;;13.65;50.97;99236.06;4396691;32;20445;-82
2022/11/27 08:46:53;;;;;;;12.25;5.12;;;;;;;13.91;49.71;99235.94;4397765;32;20222;-83
2022/11/27 08:49:20;;;;;;;10.32;4.68;;;;;;;14.45;49.16;99232.16;4397419;32;20086;-83
2022/11/27 08:51:47;;;;;;;13.27;5.40;;;;;;;12.99;53.29;99240.94;4397673;32;20173;-83
2022/11/27 08:54:14;;;;;;;10.43;4.03;;;;;;;13.99;51.25;99243.44;4397003;32;20102;-83
2022/11/27 08:56:41;;;;;;;11.25;4.75;;;;;;;12.49;55.09;99237.41;4398064;32;20106;-83
2022/11/27 08:59:08;;;;;;;12.77;4.80;;;;;;;12.75;56.00;99237.38;4398256;32;20090;-83
2022/11/27 09:01:35;;;;;;;11.27;3.92;;;;;;;11.77;58.90;99234.34;4398786;32;20078;-82
2022/11/27 09:04:02;;;;;;;9.13;3.58;;;;;;;11.13;60.98;99228.34;4396304;32;20153;-82
2022/11/27 09:06:30;;;;;;;6.82;2.83;;;;;;;10.36;64.63;99230.25;4397201;32;20117;-82
2022/11/27 09:09:04;;;;;;;12.27;4.18;;;;;;;9.91;67.40;99228.66;4397456;32;20090;-82
2022/11/27 09:11:32;;;;;;;11.90;4.07;;;;;;;10.33;66.87;99225.16;4397770;32;20144;-83
2022/11/27 09:14:00;;;;;;;13.32;4.15;;;;;;;10.45;68.42;99238.66;4397847;32;20059;-82
2022/11/27 09:16:28;;;;;;;9.18;3.12;;;;;;;10.57;66.53;99236.63;4396408;32;20110;-83
2022/11/27 09:18:56;;;;;;;9.20;3.37;;;;;;;10.24;65.15;99217.63;4397356;32;20082;-82
2022/11/27 09:21:29;;;;;;;8.77;3.35;;;;;;;10.39;66.04;99224.16;4397987;32;20083;-82
2022/11/27 09:24:00;;;;;;;10.65;3.72;;;;;;;10.15;65.97;99228.97;4397735;32;20110;-82
2022/11/27 09:26:28;;;;;;;9.30;3.92;;;;;;;10.50;64.35;99227.34;4396441;32;20111;-83
2022/11/27 09:28:57;;;;;;;9.88;3.83;;;;;;;10.56;64.98;99231.53;4398135;32;20086;-82
2022/11/27 09:31:24;;;;;;;9.00;3.33;;;;;;;11.94;60.24;99233.91;4398563;32;20137;-82
2022/11/27 09:33:52;;;;;;;10.40;3.72;;;;;;;10.92;62.78;99225.44;4397118;32;20142;-82
2022/11/27 09:36:21;;;;;;;9.85;3.47;;;;;;;11.28;62.33;99227.97;4397255;32;20105;-82
2022/11/27 09:38:49;;;;;;;12.00;3.42;;;;;;;11.00;62.71;99225.25;4396115;32;20094;-82
2022/11/27 09:41:18;;;;;;;13.18;4.18;;;;;;;10.22;65.28;99227.16;4396530;32;20078;-83
2022/11/27 09:43:59;;;;;;;9.80;3.58;;;;;;;11.43;63.08;99224.13;4396816;32;20098;-82
2022/11/27 09:46:36;;;;;;;9.55;3.28;;;;;;;10.48;65.31;99215.37;4397219;32;20429;-82
2022/11/27 09:49:06;;;;;;;10.57;4.15;;;;;;;10.18;67.53;99215.16;4396830;32;20090;-82
2022/11/27 09:51:43;;;;;;;11.68;3.53;;;;;;;10.60;66.90;99223.66;4395845;32;20077;-82
2022/11/27 09:54:27;;;;;;;11.00;3.85;;;;;;;10.44;66.34;99219.75;4395543;32;20161;-83
2022/11/27 09:56:55;;;;;;;10.40;3.50;;;;;;;10.42;66.14;99213.78;4395686;32;20531;-82
2022/11/27 09:59:27;;;;;;;11.40;4.53;;;;;;;10.93;63.87;99219.38;4396364;32;20066;-82
2022/11/27 10:01:54;;;;;;;13.85;3.97;;;;;;;11.18;63.35;99216.19;4397779;32;20075;-82
2022/11/27 10:04:21;;;;;;;14.07;4.28;;;;;;;12.30;60.65;99212.06;4396473;32;20110;-82
2022/11/27 10:07:45;;;;;;;12.18;4.68;;;;;;;11.16;62.36;99208.44;4398053;32;20160;-82
2022/11/27 10:10:39;;;;;;;11.43;4.37;;;;;;;11.77;61.04;99204.16;4351354;33;20099;-82
2022/11/27 10:13:13;;;;;;;9.80;4.10;;;;;;;11.87;60.50;99202.19;4350864;33;20174;-82
2022/11/27 10:15:57;;;;;;;10.18;4.20;;;;;;;11.56;60.32;99194.44;4380622;32;20126;-83
2022/11/27 10:18:33;;;;;;;10.35;4.05;;;;;;;12.17;59.26;99197.84;4397111;32;20075;-83
2022/11/27 10:21:07;;;;;;;13.40;4.73;;;;;;;12.29;58.24;99192.28;4398101;32;20078;-82
2022/11/27 10:24:15;;;;;;;9.52;3.83;;;;;;;12.40;59.13;99199.69;4397547;32;20429;-83
2022/11/27 10:26:45;;;;;;;11.98;4.78;;;;;;;12.59;58.35;99192.19;4350444;33;20108;-83
2022/11/27 10:29:32;;;;;;;14.95;4.85;;;;;;;12.40;59.08;99184.16;4350575;33;20521;-83
2022/11/27 10:32:15;;;;;;;7.03;2.65;;;;;;;13.41;54.87;99180.78;4382094;32;20094;-83
2022/11/27 10:35:04;;;;;;;13.18;4.97;;;;;;;13.56;53.57;99175.84;4396591;32;20075;-83
2022/11/27 10:37:45;;;;;;;11.40;4.65;;;;;;;12.73;57.86;99175.28;4398555;32;20113;-83
2022/11/27 10:40:12;;;;;;;10.35;3.85;;;;;;;13.20;54.81;99170.28;4397799;32;20074;-83
2022/11/27 10:43:03;;;;;;;11.07;4.60;;;;;;;13.59;52.78;99169.72;4397703;32;20109;-84
2022/11/27 10:46:16;;;;;;;13.45;4.80;;;;;;;13.38;53.21;99170.50;4397513;32;20373;-83
2022/11/27 10:48:43;;;;;;;11.65;5.15;;;;;;;13.56;51.96;99162.91;4396811;32;20160;-82
2022/11/27 10:51:14;;;;;;;10.48;3.87;;;;;;;13.68;51.66;99165.94;4396278;32;20152;-83
2022/11/27 10:53:42;;;;;;;12.68;4.55;;;;;;;13.58;52.75;99155.91;4396827;32;20136;-83
2022/11/27 10:56:16;;;;;;;9.85;4.00;;;;;;;13.47;52.74;99155.44;4397748;32;20161;-83
2022/11/27 10:59:18;;;;;;;12.40;4.40;;;;;;;13.98;51.67;99151.78;4398081;32;20094;-83
2022/11/27 11:01:48;;;;;;;11.70;4.90;;;;;;;13.67;50.51;99152.12;4338930;33;20232;-83
2022/11/27 11:04:20;;;;;;;8.98;3.55;;;;;;;15.13;47.48;99152.28;4389720;32;20081;-83
2022/11/27 11:07:22;;;;;;;10.95;4.05;;;;;;;15.62;45.94;99143.12;4394603;32;20108;-83
2022/11/27 11:09:49;;;;;;;10.23;3.95;;;;;;;13.58;50.88;99142.09;4396142;32;20512;-83
2022/11/27 11:12:19;;;;;;;12.18;5.30;;;;;;;12.05;54.14;99138.72;4395963;32;20113;-83
2022/11/27 11:14:51;;;;;;;11.23;4.43;;;;;;;12.51;55.19;99142.41;4396028;32;20097;-83
2022/11/27 11:17:27;;;;;;;6.90;2.53;;;;;;;13.00;53.66;99141.59;4396403;32;20082;-83
2022/11/27 11:19:54;;;;;;;12.15;5.12;;;;;;;13.70;50.56;99127.81;4396269;32;20102;-83
2022/11/27 11:22:21;;;;;;;12.37;4.70;;;;;;;14.57;48.71;99133.00;4396834;32;20094;-83
2022/11/27 11:24:50;;;;;;;14.02;4.85;;;;;;;14.48;48.87;99129.94;4396727;32;20105;-83
2022/11/27 11:27:29;;;;;;;11.18;4.57;;;;;;;13.78;50.30;99120.59;4397154;32;20082;-83
2022/11/27 11:30:04;;;;;;;10.13;3.70;;;;;;;14.51;48.85;99122.03;4396850;32;20594;-83
2022/11/27 11:32:34;;;;;;;11.27;3.67;;;;;;;13.96;48.09;99127.66;4396067;32;20438;-83
2022/11/27 11:35:04;;;;;;;9.32;3.60;;;;;;;12.86;51.75;99113.56;4395849;32;20520;-83
2022/11/27 11:37:32;;;;;;;9.70;3.33;;;;;;;13.34;50.75;99114.50;4395117;32;20385;-83
2022/11/27 11:39:59;;;;;;;10.45;4.03;;;;;;;13.91;49.61;99114.00;4396146;32;20106;-83
2022/11/27 11:42:30;;;;;;;;;;;;;;;14.49;47.71;99108.25;4396499;32;20197;-83